Time;durP1;ratioP1;P1;durP2;ratioP2;P2;SDS_P1;SDS_P2;PMS_P1;PMS_P2;Temp;Humidity;BMP_temperature;BMP_pressure;BME280_temperature;BME280_humidity;BME280_pressure;Samples;Min_cycle;Max_cycle;Signal;HPM_P1;HPM_P2
2022/02/22 00:01:37;;;;;;;39.28;5.90;;;;;;;;;;5099844;28;20062;-63
2022/02/22 00:04:04;;;;;;;33.22;5.70;;;;;;;;;;5086847;28;20064;-63
2022/02/22 00:06:30;;;;;;;46.95;6.30;;;;;;;;;;5084622;28;20033;-63
2022/02/22 00:08:56;;;;;;;32.10;5.70;;;;;;;;;;5085527;28;20045;-63
2022/02/22 00:11:23;;;;;;;51.65;10.52;;;;;;;;;;5068266;28;20076;-63
2022/02/22 00:13:49;;;;;;;42.97;6.38;;;;;;;;;;5068741;28;20489;-62
2022/02/22 00:16:15;;;;;;;43.28;7.60;;;;;;;;;;5081927;28;20047;-63
2022/02/22 00:18:41;;;;;;;32.45;6.60;;;;;;;;;;5080948;28;20044;-62
2022/02/22 00:21:08;;;;;;;42.08;6.93;;;;;;;;;;5064244;28;20431;-62
2022/02/22 00:23:34;;;;;;;46.03;7.53;;;;;;;;;;5065729;28;20110;-62
2022/02/22 00:26:00;;;;;;;34.13;5.43;;;;;;;;;;5077241;28;20040;-63
2022/02/22 00:28:27;;;;;;;43.33;7.38;;;;;;;;;;5085104;28;20044;-62
2022/02/22 00:30:53;;;;;;;30.98;5.53;;;;;;;;;;5085079;28;20052;-63
2022/02/22 00:33:19;;;;;;;33.08;6.68;;;;;;;;;;5079047;28;20040;-62
2022/02/22 00:35:45;;;;;;;39.72;5.85;;;;;;;;;;5064938;28;20096;-62
2022/02/22 00:38:11;;;;;;;44.65;6.07;;;;;;;;;;5064291;28;20049;-62
2022/02/22 00:40:37;;;;;;;36.78;7.13;;;;;;;;;;5064818;28;20094;-62
2022/02/22 00:43:04;;;;;;;39.08;6.72;;;;;;;;;;5080638;28;20127;-63
2022/02/22 00:45:30;;;;;;;31.70;6.18;;;;;;;;;;5065132;28;20048;-63
2022/02/22 00:47:56;;;;;;;54.33;8.43;;;;;;;;;;5064716;28;20045;-62
2022/02/22 00:50:22;;;;;;;37.95;6.20;;;;;;;;;;5064588;28;20060;-62
2022/02/22 00:52:49;;;;;;;42.08;6.22;;;;;;;;;;5078010;28;20083;-62
2022/02/22 00:55:15;;;;;;;39.65;6.10;;;;;;;;;;5084534;28;20093;-62
2022/02/22 00:57:43;;;;;;;32.55;5.43;;;;;;;;;;5084420;28;20118;-63
2022/02/22 01:00:11;;;;;;;37.53;5.85;;;;;;;;;;5084877;28;20337;-63
2022/02/22 01:02:38;;;;;;;31.00;6.63;;;;;;;;;;5063603;28;20076;-62
2022/02/22 01:05:04;;;;;;;28.65;4.70;;;;;;;;;;5076263;28;20127;-62
2022/02/22 01:07:30;;;;;;;37.47;6.50;;;;;;;;;;5082523;28;20052;-62
2022/02/22 01:09:56;;;;;;;32.67;4.47;;;;;;;;;;5084311;28;20098;-62
2022/02/22 01:12:22;;;;;;;30.88;6.35;;;;;;;;;;5067553;28;20056;-63
2022/02/22 01:14:48;;;;;;;33.30;4.85;;;;;;;;;;5064771;28;20045;-62
2022/02/22 01:17:14;;;;;;;32.28;4.90;;;;;;;;;;5063957;28;20112;-62
2022/02/22 01:19:41;;;;;;;28.27;5.30;;;;;;;;;;5064343;28;20057;-62
2022/02/22 01:22:07;;;;;;;27.10;4.90;;;;;;;;;;5063580;28;20072;-62
2022/02/22 01:24:33;;;;;;;29.23;5.30;;;;;;;;;;5064222;28;20041;-62
2022/02/22 01:26:59;;;;;;;30.77;5.70;;;;;;;;;;5064458;28;20044;-62
2022/02/22 01:29:26;;;;;;;36.35;6.00;;;;;;;;;;5063953;28;20076;-62
2022/02/22 01:31:53;;;;;;;40.47;5.50;;;;;;;;;;5075723;28;20045;-62
2022/02/22 01:34:19;;;;;;;26.42;4.68;;;;;;;;;;5084279;28;20519;-62
2022/02/22 01:36:45;;;;;;;26.20;4.53;;;;;;;;;;5081123;28;20044;-62
2022/02/22 01:39:12;;;;;;;28.17;5.35;;;;;;;;;;5084149;28;20076;-62
2022/02/22 01:41:39;;;;;;;19.80;3.35;;;;;;;;;;5084498;28;20051;-62
2022/02/22 01:44:05;;;;;;;30.42;5.68;;;;;;;;;;5084066;28;20082;-62
2022/02/22 01:46:32;;;;;;;32.83;5.25;;;;;;;;;;5067866;28;20049;-62
2022/02/22 01:48:58;;;;;;;29.23;4.82;;;;;;;;;;5063834;28;20072;-62
2022/02/22 01:51:24;;;;;;;25.85;4.60;;;;;;;;;;5062996;28;20059;-63
2022/02/22 01:53:50;;;;;;;34.03;5.10;;;;;;;;;;5063798;28;20056;-63
2022/02/22 01:56:17;;;;;;;36.55;5.15;;;;;;;;;;5070049;28;20076;-62
2022/02/22 01:58:43;;;;;;;36.30;5.57;;;;;;;;;;5063998;28;20045;-62
2022/02/22 02:01:10;;;;;;;25.65;5.03;;;;;;;;;;5063494;28;20319;-62
2022/02/22 02:03:36;;;;;;;27.60;5.10;;;;;;;;;;5079196;28;20037;-62
2022/02/22 02:06:03;;;;;;;41.22;5.43;;;;;;;;;;5074172;28;20040;-62
2022/02/22 02:08:29;;;;;;;34.03;4.53;;;;;;;;;;5083877;28;20555;-62
2022/02/22 02:10:55;;;;;;;38.42;5.38;;;;;;;;;;5072732;28;20091;-62
2022/02/22 02:13:21;;;;;;;43.72;7.35;;;;;;;;;;5096246;28;20488;-62
2022/02/22 02:15:48;;;;;;;64.05;6.20;;;;;;;;;;5074681;28;20479;-62
2022/02/22 02:18:14;;;;;;;42.33;7.07;;;;;;;;;;5087655;28;20054;-62
2022/02/22 02:20:40;;;;;;;40.72;5.45;;;;;;;;;;5087488;28;20119;-62
2022/02/22 02:23:06;;;;;;;37.80;5.38;;;;;;;;;;5085787;28;20036;-62
2022/02/22 02:25:32;;;;;;;47.63;7.10;;;;;;;;;;5080659;28;20632;-60
2022/02/22 02:27:58;;;;;;;37.70;5.63;;;;;;;;;;5082723;28;20060;-61
2022/02/22 02:30:24;;;;;;;31.67;5.40;;;;;;;;;;5067219;28;20072;-61
2022/02/22 02:32:50;;;;;;;33.40;5.40;;;;;;;;;;5067175;28;20099;-61
2022/02/22 02:35:16;;;;;;;32.47;6.90;;;;;;;;;;5068028;28;20079;-61
2022/02/22 02:37:43;;;;;;;35.38;6.00;;;;;;;;;;5066754;28;20178;-61
2022/02/22 02:40:10;;;;;;;30.55;4.85;;;;;;;;;;5082845;28;20575;-61
2022/02/22 02:42:43;;;;;;;39.92;5.07;;;;;;;;;;5067067;28;20037;-61
2022/02/22 02:45:10;;;;;;;29.20;4.82;;;;;;;;;;5078133;28;20091;-62
2022/02/22 02:47:37;;;;;;;36.22;6.20;;;;;;;;;;5087026;28;20049;-61
2022/02/22 02:50:05;;;;;;;33.60;5.45;;;;;;;;;;5085702;28;20052;-62
2022/02/22 02:52:31;;;;;;;31.50;6.05;;;;;;;;;;5086357;28;20064;-61
2022/02/22 02:54:58;;;;;;;34.40;5.15;;;;;;;;;;5076710;28;20049;-61
2022/02/22 02:57:26;;;;;;;41.83;6.35;;;;;;;;;;5066581;28;20136;-61
2022/02/22 02:59:52;;;;;;;45.75;6.78;;;;;;;;;;5066702;28;20052;-61
2022/02/22 03:02:18;;;;;;;35.55;6.03;;;;;;;;;;5066671;28;20045;-61
2022/02/22 03:04:44;;;;;;;30.60;7.15;;;;;;;;;;5074597;28;20448;-61
2022/02/22 03:07:11;;;;;;;51.42;7.43;;;;;;;;;;5085836;28;20516;-61
2022/02/22 03:09:37;;;;;;;49.75;7.63;;;;;;;;;;5086606;28;20123;-61
2022/02/22 03:12:03;;;;;;;43.95;7.75;;;;;;;;;;5085404;28;20056;-61
2022/02/22 03:14:29;;;;;;;37.63;8.20;;;;;;;;;;5078939;28;20041;-61
2022/02/22 03:16:55;;;;;;;40.00;7.68;;;;;;;;;;5066364;28;20049;-61
2022/02/22 03:19:21;;;;;;;37.35;7.40;;;;;;;;;;5085536;28;20040;-61
2022/02/22 03:21:47;;;;;;;40.22;6.20;;;;;;;;;;5085542;28;20045;-61
2022/02/22 03:24:13;;;;;;;32.90;5.43;;;;;;;;;;5086449;28;20044;-61
2022/02/22 03:26:39;;;;;;;34.45;5.90;;;;;;;;;;5080245;28;20048;-61
2022/02/22 03:29:06;;;;;;;50.35;7.68;;;;;;;;;;5067017;28;20059;-61
2022/02/22 03:31:32;;;;;;;40.03;5.70;;;;;;;;;;5065984;28;20076;-62
2022/02/22 03:33:59;;;;;;;37.15;5.22;;;;;;;;;;5068217;28;20044;-61
2022/02/22 03:36:28;;;;;;;47.15;6.32;;;;;;;;;;5073898;28;20043;-61
2022/02/22 03:38:54;;;;;;;35.80;4.97;;;;;;;;;;5085769;28;20052;-60
2022/02/22 03:41:21;;;;;;;43.40;6.00;;;;;;;;;;5084496;28;20052;-61
2022/02/22 03:43:47;;;;;;;42.85;7.18;;;;;;;;;;5083486;28;20056;-62
2022/02/22 03:46:13;;;;;;;38.78;5.88;;;;;;;;;;5066198;28;20469;-62
2022/02/22 03:48:40;;;;;;;81.90;8.70;;;;;;;;;;5065838;28;20068;-62
2022/02/22 03:51:06;;;;;;;37.03;6.00;;;;;;;;;;5080612;28;20044;-62
2022/02/22 03:53:32;;;;;;;37.10;6.20;;;;;;;;;;5065314;28;20125;-62
2022/02/22 03:55:59;;;;;;;38.55;5.15;;;;;;;;;;5084350;28;20052;-62
2022/02/22 03:58:25;;;;;;;30.98;5.00;;;;;;;;;;5085559;28;20104;-62
2022/02/22 04:00:51;;;;;;;42.92;7.40;;;;;;;;;;5085929;28;20119;-62
2022/02/22 04:03:17;;;;;;;31.23;6.28;;;;;;;;;;5085597;28;20104;-61
2022/02/22 04:05:46;;;;;;;37.53;5.45;;;;;;;;;;5082780;28;20052;-62
2022/02/22 04:08:12;;;;;;;37.38;6.47;;;;;;;;;;5065056;28;20041;-61
2022/02/22 04:10:38;;;;;;;36.15;4.90;;;;;;;;;;5070287;28;20036;-62
2022/02/22 04:13:04;;;;;;;27.20;5.55;;;;;;;;;;5085120;28;20055;-62
2022/02/22 04:15:30;;;;;;;32.80;6.18;;;;;;;;;;5085037;28;20041;-62
2022/02/22 04:17:56;;;;;;;25.95;5.72;;;;;;;;;;5085121;28;20063;-62
2022/02/22 04:20:23;;;;;;;53.42;6.32;;;;;;;;;;5085264;28;20074;-62
2022/02/22 04:22:49;;;;;;;34.63;6.40;;;;;;;;;;5084303;28;20037;-62
2022/02/22 04:25:15;;;;;;;31.88;6.57;;;;;;;;;;5071201;28;20558;-62
2022/02/22 04:27:42;;;;;;;44.13;6.85;;;;;;;;;;5065255;28;20100;-61
2022/02/22 04:30:08;;;;;;;46.60;7.10;;;;;;;;;;5064991;28;20071;-61
2022/02/22 04:32:34;;;;;;;57.42;6.57;;;;;;;;;;5064986;28;20041;-62
2022/02/22 04:35:00;;;;;;;39.40;5.55;;;;;;;;;;5076229;28;20040;-62
2022/02/22 04:37:26;;;;;;;40.75;6.45;;;;;;;;;;5083628;28;20045;-61
2022/02/22 04:39:54;;;;;;;30.40;6.57;;;;;;;;;;5084842;28;20467;-62
2022/02/22 04:42:21;;;;;;;26.42;4.43;;;;;;;;;;5085311;28;20079;-61
2022/02/22 04:44:47;;;;;;;33.22;4.90;;;;;;;;;;5075019;28;20040;-61
2022/02/22 04:47:13;;;;;;;44.08;6.53;;;;;;;;;;5064450;28;20074;-61
2022/02/22 04:49:39;;;;;;;46.20;6.75;;;;;;;;;;5064452;28;20106;-60
2022/02/22 04:52:06;;;;;;;40.70;5.60;;;;;;;;;;5063506;28;20346;-59
2022/02/22 04:54:32;;;;;;;32.38;5.50;;;;;;;;;;5073503;28;20113;-60
2022/02/22 04:56:58;;;;;;;31.95;4.53;;;;;;;;;;5084798;28;20412;-61
2022/02/22 04:59:24;;;;;;;42.20;5.85;;;;;;;;;;5084577;28;20044;-60
2022/02/22 05:01:51;;;;;;;28.52;4.93;;;;;;;;;;5081517;28;20076;-60
2022/02/22 05:04:17;;;;;;;28.75;5.35;;;;;;;;;;5084637;28;20051;-61
2022/02/22 05:06:43;;;;;;;36.25;5.30;;;;;;;;;;5080165;28;20045;-63
2022/02/22 05:09:10;;;;;;;43.65;6.43;;;;;;;;;;5063761;28;20401;-62
2022/02/22 05:11:37;;;;;;;39.80;5.90;;;;;;;;;;5064743;28;20409;-60
2022/02/22 05:14:03;;;;;;;28.60;4.10;;;;;;;;;;5074897;28;20059;-60
2022/02/22 05:16:35;;;;;;;37.13;7.05;;;;;;;;;;5083441;28;20433;-61
2022/02/22 05:19:01;;;;;;;32.45;5.50;;;;;;;;;;5066185;28;20044;-61
2022/02/22 05:21:27;;;;;;;34.55;5.03;;;;;;;;;;5077805;28;20040;-60
2022/02/22 05:23:53;;;;;;;28.80;4.63;;;;;;;;;;5081009;28;20058;-60
2022/02/22 05:26:19;;;;;;;46.80;7.82;;;;;;;;;;5068116;28;20048;-60
2022/02/22 05:28:46;;;;;;;43.63;6.78;;;;;;;;;;5085331;28;20040;-60
2022/02/22 05:31:13;;;;;;;38.90;6.30;;;;;;;;;;5084214;28;20048;-60
2022/02/22 05:33:39;;;;;;;32.15;6.55;;;;;;;;;;5064033;28;20102;-60
2022/02/22 05:36:05;;;;;;;38.97;5.95;;;;;;;;;;5063420;28;20216;-60
2022/02/22 05:38:32;;;;;;;35.50;6.03;;;;;;;;;;5064110;28;20044;-60
2022/02/22 05:40:58;;;;;;;47.88;6.47;;;;;;;;;;5069249;28;20045;-60
2022/02/22 05:43:24;;;;;;;41.60;5.57;;;;;;;;;;5084332;28;20068;-60
2022/02/22 05:45:52;;;;;;;33.95;4.70;;;;;;;;;;5083850;28;20049;-60
2022/02/22 05:48:18;;;;;;;41.22;6.65;;;;;;;;;;5084082;28;20055;-61
2022/02/22 05:50:44;;;;;;;25.60;5.65;;;;;;;;;;5076860;28;20044;-60
2022/02/22 05:53:11;;;;;;;30.42;5.32;;;;;;;;;;5086176;28;20064;-60
2022/02/22 05:55:38;;;;;;;34.65;5.78;;;;;;;;;;5087904;28;20048;-60
2022/02/22 05:58:04;;;;;;;36.63;4.88;;;;;;;;;;5087120;28;20048;-60
2022/02/22 06:00:30;;;;;;;42.50;6.68;;;;;;;;;;5083433;28;20572;-60
2022/02/22 06:02:57;;;;;;;24.67;4.93;;;;;;;;;;5068485;28;20099;-60
2022/02/22 06:05:23;;;;;;;35.45;6.25;;;;;;;;;;5088248;28;20044;-60
2022/02/22 06:07:49;;;;;;;40.97;5.95;;;;;;;;;;5084318;28;20384;-60
2022/02/22 06:10:15;;;;;;;33.75;5.18;;;;;;;;;;5070108;28;20044;-60
2022/02/22 06:12:45;;;;;;;31.30;5.20;;;;;;;;;;5067568;28;20051;-60
2022/02/22 06:15:11;;;;;;;37.78;5.13;;;;;;;;;;5067598;28;20033;-60
2022/02/22 06:17:44;;;;;;;36.63;5.65;;;;;;;;;;5067398;28;20049;-60
2022/02/22 06:20:12;;;;;;;32.72;5.93;;;;;;;;;;5068507;28;20091;-61
2022/02/22 06:22:38;;;;;;;32.22;5.28;;;;;;;;;;5066468;28;20098;-60
2022/02/22 06:25:05;;;;;;;36.80;6.72;;;;;;;;;;5067208;28;20092;-60
2022/02/22 06:27:31;;;;;;;33.33;5.03;;;;;;;;;;5067063;28;20128;-62
2022/02/22 06:29:57;;;;;;;54.03;6.03;;;;;;;;;;5067915;28;20060;-60
2022/02/22 06:32:23;;;;;;;33.55;5.32;;;;;;;;;;5066978;28;20099;-60
2022/02/22 06:34:50;;;;;;;41.42;6.63;;;;;;;;;;5067368;28;20132;-60
2022/02/22 06:37:16;;;;;;;31.98;6.85;;;;;;;;;;5065720;28;20049;-60
2022/02/22 06:39:42;;;;;;;57.40;9.02;;;;;;;;;;5081903;28;20049;-60
2022/02/22 06:42:09;;;;;;;41.53;7.05;;;;;;;;;;5086816;28;20048;-60
2022/02/22 06:44:36;;;;;;;38.90;5.93;;;;;;;;;;5086317;28;20045;-60
2022/02/22 06:47:03;;;;;;;40.75;6.40;;;;;;;;;;5072500;28;20041;-60
2022/02/22 06:49:29;;;;;;;44.67;6.65;;;;;;;;;;5067186;28;20167;-60
2022/02/22 06:51:55;;;;;;;44.38;7.70;;;;;;;;;;5065644;28;20132;-60
2022/02/22 06:54:21;;;;;;;46.83;5.35;;;;;;;;;;5069346;28;20126;-60
2022/02/22 06:56:48;;;;;;;49.78;7.22;;;;;;;;;;5066730;28;20076;-60
2022/02/22 06:59:14;;;;;;;33.63;5.35;;;;;;;;;;5066768;28;20045;-61
2022/02/22 07:01:40;;;;;;;38.15;6.10;;;;;;;;;;5066093;28;20037;-60
2022/02/22 07:04:06;;;;;;;33.53;5.07;;;;;;;;;;5075196;28;20091;-60
2022/02/22 07:06:33;;;;;;;38.97;5.13;;;;;;;;;;5085615;28;20044;-60
2022/02/22 07:08:59;;;;;;;46.35;5.45;;;;;;;;;;5086323;28;20044;-60
2022/02/22 07:11:25;;;;;;;39.42;6.45;;;;;;;;;;5086325;28;20048;-62
2022/02/22 07:13:51;;;;;;;39.80;5.63;;;;;;;;;;5081062;28;20040;-62
2022/02/22 07:16:17;;;;;;;41.78;6.38;;;;;;;;;;5073689;28;20048;-60
2022/02/22 07:18:44;;;;;;;41.40;5.95;;;;;;;;;;5086849;28;20424;-60
2022/02/22 07:21:10;;;;;;;27.92;6.07;;;;;;;;;;5085653;28;20063;-60
2022/02/22 07:23:36;;;;;;;41.38;5.45;;;;;;;;;;5083708;28;20049;-60
2022/02/22 07:26:02;;;;;;;29.92;4.97;;;;;;;;;;5085904;28;20107;-60
2022/02/22 07:28:28;;;;;;;42.90;7.05;;;;;;;;;;5085081;28;20574;-60
2022/02/22 07:30:54;;;;;;;39.22;5.88;;;;;;;;;;5078199;28;20051;-60
2022/02/22 07:33:20;;;;;;;58.88;7.47;;;;;;;;;;5075979;28;20096;-60
2022/02/22 07:35:47;;;;;;;36.03;6.95;;;;;;;;;;5085877;28;20044;-60
2022/02/22 07:38:13;;;;;;;31.83;5.93;;;;;;;;;;5085539;28;20059;-60
2022/02/22 07:40:39;;;;;;;44.05;6.05;;;;;;;;;;5083319;28;20475;-60
2022/02/22 07:43:05;;;;;;;40.47;5.68;;;;;;;;;;5080876;28;20100;-60
2022/02/22 07:45:31;;;;;;;36.40;6.60;;;;;;;;;;5086303;28;20040;-60
2022/02/22 07:47:57;;;;;;;53.30;7.07;;;;;;;;;;5085679;28;20511;-60
2022/02/22 07:50:24;;;;;;;33.22;4.95;;;;;;;;;;5085621;28;20040;-60
2022/02/22 07:52:50;;;;;;;41.00;6.65;;;;;;;;;;5066662;28;20531;-60
2022/02/22 07:55:16;;;;;;;49.55;8.40;;;;;;;;;;5065614;28;20057;-60
2022/02/22 07:57:42;;;;;;;27.55;5.35;;;;;;;;;;5066688;28;20055;-60
2022/02/22 08:00:10;;;;;;;39.75;6.68;;;;;;;;;;5065816;28;20049;-60
2022/02/22 08:02:36;;;;;;;36.22;6.00;;;;;;;;;;5092712;28;20041;-60
2022/02/22 08:05:02;;;;;;;41.55;6.05;;;;;;;;;;5085442;28;20044;-60
2022/02/22 08:07:29;;;;;;;33.60;5.00;;;;;;;;;;5087187;28;20036;-60
2022/02/22 08:09:55;;;;;;;38.53;5.50;;;;;;;;;;5090035;28;20048;-61
2022/02/22 08:12:21;;;;;;;45.03;6.43;;;;;;;;;;5084749;28;20112;-60
2022/02/22 08:14:47;;;;;;;28.77;6.10;;;;;;;;;;5083113;28;20048;-60
2022/02/22 08:17:13;;;;;;;36.95;5.95;;;;;;;;;;5071084;28;20810;-61
2022/02/22 08:19:39;;;;;;;41.53;5.90;;;;;;;;;;5082347;28;20087;-61
2022/02/22 08:22:05;;;;;;;35.38;5.70;;;;;;;;;;5084369;28;20053;-61
2022/02/22 08:24:31;;;;;;;38.72;5.63;;;;;;;;;;5085194;28;20047;-61
2022/02/22 08:26:59;;;;;;;44.42;5.90;;;;;;;;;;5083913;28;20048;-60
2022/02/22 08:29:26;;;;;;;31.70;4.78;;;;;;;;;;5083305;28;20078;-60
2022/02/22 08:31:52;;;;;;;39.47;7.25;;;;;;;;;;5083460;28;20048;-60
2022/02/22 08:34:19;;;;;;;35.47;6.47;;;;;;;;;;5084839;28;20131;-60
2022/02/22 08:36:45;;;;;;;23.30;3.90;;;;;;;;;;5082787;28;20071;-60
2022/02/22 08:39:12;;;;;;;32.30;5.13;;;;;;;;;;5083125;28;20053;-60
2022/02/22 08:41:38;;;;;;;39.13;5.13;;;;;;;;;;5084988;28;20048;-60
2022/02/22 08:44:04;;;;;;;43.30;7.32;;;;;;;;;;5084646;28;20123;-60
2022/02/22 08:46:30;;;;;;;35.13;6.18;;;;;;;;;;5075322;28;20045;-61
2022/02/22 08:48:56;;;;;;;39.80;6.40;;;;;;;;;;5081631;28;20109;-61
2022/02/22 08:51:23;;;;;;;30.98;5.45;;;;;;;;;;5099243;28;20048;-61
2022/02/22 08:53:49;;;;;;;37.03;6.07;;;;;;;;;;5068502;28;20084;-61
2022/02/22 08:56:15;;;;;;;35.22;6.18;;;;;;;;;;5074068;28;20060;-61
2022/02/22 08:58:41;;;;;;;36.70;5.78;;;;;;;;;;5081033;28;20095;-63
2022/02/22 09:01:08;;;;;;;39.72;5.88;;;;;;;;;;5078556;28;20056;-62
2022/02/22 09:03:34;;;;;;;38.42;5.55;;;;;;;;;;5082817;28;20484;-63
2022/02/22 09:06:01;;;;;;;27.85;5.95;;;;;;;;;;5074332;28;20056;-63
2022/02/22 09:08:27;;;;;;;25.38;3.95;;;;;;;;;;5082475;28;20476;-63
2022/02/22 09:10:54;;;;;;;36.05;6.05;;;;;;;;;;5077331;28;20037;-63
2022/02/22 09:13:20;;;;;;;24.30;3.95;;;;;;;;;;5082398;28;20037;-62
2022/02/22 09:15:46;;;;;;;21.95;4.57;;;;;;;;;;5071924;28;20094;-62
2022/02/22 09:18:13;;;;;;;26.65;4.22;;;;;;;;;;5075401;28;20045;-63
2022/02/22 09:20:39;;;;;;;22.35;4.85;;;;;;;;;;5075361;28;20428;-62
2022/02/22 09:23:05;;;;;;;31.48;4.45;;;;;;;;;;5080848;28;20036;-63
2022/02/22 09:25:35;;;;;;;23.00;5.68;;;;;;;;;;5085615;28;20044;-63
2022/02/22 09:28:02;;;;;;;24.17;4.28;;;;;;;;;;5081687;28;20522;-62
2022/02/22 09:30:31;;;;;;;20.47;3.30;;;;;;;;;;5083705;28;20047;-62
2022/02/22 09:32:57;;;;;;;23.83;4.55;;;;;;;;;;5082557;28;20297;-62
2022/02/22 09:35:25;;;;;;;24.13;4.22;;;;;;;;;;5078945;28;20049;-62
2022/02/22 09:37:51;;;;;;;27.52;4.35;;;;;;;;;;5082212;28;20059;-62
2022/02/22 09:40:17;;;;;;;26.10;4.50;;;;;;;;;;5078904;28;20052;-63
2022/02/22 09:42:44;;;;;;;22.13;4.20;;;;;;;;;;5078292;28;20041;-62
2022/02/22 09:45:11;;;;;;;37.05;5.10;;;;;;;;;;5084119;28;20045;-62
2022/02/22 09:47:38;;;;;;;32.88;5.60;;;;;;;;;;5081006;28;20044;-62
2022/02/22 09:50:05;;;;;;;18.45;3.90;;;;;;;;;;5075981;28;20529;-62
2022/02/22 09:52:31;;;;;;;19.80;3.83;;;;;;;;;;5082297;28;20080;-63
2022/02/22 09:54:57;;;;;;;20.65;4.00;;;;;;;;;;5079250;28;20293;-62
2022/02/22 09:57:23;;;;;;;20.77;4.22;;;;;;;;;;5082423;28;20153;-63
2022/02/22 09:59:49;;;;;;;27.60;4.80;;;;;;;;;;5073439;28;20041;-76
2022/02/22 10:02:16;;;;;;;29.33;4.18;;;;;;;;;;5075089;28;20094;-64
2022/02/22 10:04:43;;;;;;;30.15;4.50;;;;;;;;;;5075161;28;20041;-64
2022/02/22 10:07:10;;;;;;;25.83;4.95;;;;;;;;;;5081090;28;20047;-65
2022/02/22 10:09:40;;;;;;;25.33;3.92;;;;;;;;;;5074332;28;20484;-64
2022/02/22 10:12:07;;;;;;;18.02;3.97;;;;;;;;;;5075712;28;20439;-64
2022/02/22 10:14:38;;;;;;;27.05;5.32;;;;;;;;;;5079327;28;20064;-64
2022/02/22 10:17:04;;;;;;;23.55;4.65;;;;;;;;;;5083877;28;20036;-64
2022/02/22 10:19:34;;;;;;;23.80;4.60;;;;;;;;;;5073950;28;20037;-64
2022/02/22 10:22:01;;;;;;;26.60;4.43;;;;;;;;;;5080716;28;20066;-64
2022/02/22 10:24:29;;;;;;;35.83;5.82;;;;;;;;;;5077173;28;20047;-64
2022/02/22 10:27:05;;;;;;;30.52;4.97;;;;;;;;;;5072576;28;20037;-64
2022/02/22 10:29:32;;;;;;;30.50;5.72;;;;;;;;;;5075525;28;20080;-64
2022/02/22 10:31:58;;;;;;;26.00;6.00;;;;;;;;;;5081906;28;20051;-64
2022/02/22 10:34:31;;;;;;;33.10;7.50;;;;;;;;;;5081358;28;20071;-64
2022/02/22 10:36:57;;;;;;;36.22;6.35;;;;;;;;;;5083200;28;20047;-64
2022/02/22 10:39:23;;;;;;;28.80;6.45;;;;;;;;;;5077407;28;20104;-65
2022/02/22 10:41:54;;;;;;;41.22;7.72;;;;;;;;;;5077363;28;20064;-65
2022/02/22 10:44:35;;;;;;;29.58;6.32;;;;;;;;;;5085779;28;20119;-65
2022/02/22 10:47:03;;;;;;;32.08;7.00;;;;;;;;;;5079925;28;20108;-63
2022/02/22 10:49:29;;;;;;;;;;;;;;;;;;5081216;28;20036;-73
2022/02/22 10:51:56;;;;;;;34.53;6.43;;;;;;;;;;5086729;28;19943;-62
2022/02/22 10:54:23;;;;;;;32.22;7.32;;;;;;;;;;5082129;28;20032;-72
2022/02/22 10:56:50;;;;;;;30.50;6.75;;;;;;;;;;5095583;28;20076;-70
2022/02/22 10:59:23;;;;;;;39.90;8.32;;;;;;;;;;5079477;28;20390;-70
2022/02/22 11:01:50;;;;;;;40.35;8.10;;;;;;;;;;5085401;28;20049;-70
2022/02/22 11:04:17;;;;;;;48.00;7.75;;;;;;;;;;5084593;28;20575;-69
2022/02/22 11:06:43;;;;;;;37.13;6.90;;;;;;;;;;5079006;28;20052;-71
2022/02/22 11:09:13;;;;;;;36.10;6.90;;;;;;;;;;5077045;28;20048;-73
2022/02/22 11:11:41;;;;;;;27.67;6.60;;;;;;;;;;5086140;28;20072;-73
2022/02/22 11:14:08;;;;;;;27.52;6.30;;;;;;;;;;5085014;28;20044;-75
2022/02/22 11:16:54;;;;;;;36.67;5.65;;;;;;;;;;5083156;28;20435;-75
2022/02/22 11:19:33;;;;;;;51.88;8.52;;;;;;;;;;5077029;28;20100;-66
2022/02/22 11:22:09;;;;;;;34.13;6.15;;;;;;;;;;5115152;28;20055;-70
2022/02/22 11:24:49;;;;;;;39.30;7.40;;;;;;;;;;5072342;28;20076;-71
2022/02/22 11:27:32;;;;;;;32.92;5.47;;;;;;;;;;5100215;28;20051;-70
2022/02/22 11:30:04;;;;;;;27.73;6.60;;;;;;;;;;5081701;28;20067;-70
2022/02/22 11:32:30;;;;;;;31.73;6.75;;;;;;;;;;5083066;28;20087;-72
2022/02/22 11:34:57;;;;;;;33.30;6.32;;;;;;;;;;5085269;28;20074;-69
2022/02/22 11:37:30;;;;;;;34.55;8.07;;;;;;;;;;5079055;28;20056;-69
2022/02/22 11:39:56;;;;;;;28.55;5.25;;;;;;;;;;5082282;28;20036;-70
2022/02/22 11:42:24;;;;;;;34.80;4.95;;;;;;;;;;5085534;28;20036;-70
2022/02/22 11:45:07;;;;;;;30.90;5.75;;;;;;;;;;5083682;28;20036;-68
2022/02/22 11:47:34;;;;;;;27.65;6.93;;;;;;;;;;5084898;28;20059;-71
2022/02/22 11:50:02;;;;;;;22.00;5.55;;;;;;;;;;5084909;28;20559;-70
2022/02/22 11:52:37;;;;;;;48.10;7.85;;;;;;;;;;5082685;28;20060;-69
2022/02/22 11:55:05;;;;;;;25.90;5.30;;;;;;;;;;5101255;28;20064;-71
2022/02/22 11:57:41;;;;;;;34.03;5.65;;;;;;;;;;5077930;28;20060;-71
2022/02/22 12:00:08;;;;;;;36.92;6.50;;;;;;;;;;5079497;28;20041;-72
2022/02/22 12:02:42;;;;;;;33.08;5.32;;;;;;;;;;5082475;28;20071;-70
2022/02/22 12:05:23;;;;;;;34.05;6.15;;;;;;;;;;5084102;28;20053;-69
2022/02/22 12:07:58;;;;;;;33.13;5.57;;;;;;;;;;5080201;28;20128;-64
2022/02/22 12:10:24;;;;;;;30.35;5.57;;;;;;;;;;5087815;28;20059;-66
2022/02/22 12:12:51;;;;;;;31.77;6.90;;;;;;;;;;5086081;28;20055;-65
2022/02/22 12:15:19;;;;;;;34.08;5.97;;;;;;;;;;5083971;28;20080;-65
2022/02/22 12:17:45;;;;;;;26.85;7.00;;;;;;;;;;5116618;27;20086;-65
2022/02/22 12:20:15;;;;;;;28.05;6.30;;;;;;;;;;5083132;28;20089;-65
2022/02/22 12:22:41;;;;;;;38.75;7.82;;;;;;;;;;5082443;28;20044;-65
2022/02/22 12:25:07;;;;;;;29.77;6.47;;;;;;;;;;5084334;28;20556;-65
2022/02/22 12:27:39;;;;;;;30.17;6.95;;;;;;;;;;5076600;28;20077;-65
2022/02/22 12:30:05;;;;;;;32.72;6.70;;;;;;;;;;5070090;28;20366;-69
2022/02/22 12:32:35;;;;;;;24.50;6.45;;;;;;;;;;5073141;28;20154;-70
2022/02/22 12:35:06;;;;;;;34.65;6.95;;;;;;;;;;5075255;28;20057;-70
2022/02/22 12:37:45;;;;;;;29.48;7.63;;;;;;;;;;5081487;28;20106;-68
2022/02/22 12:40:12;;;;;;;30.40;7.85;;;;;;;;;;5078897;28;20056;-69
2022/02/22 12:42:38;;;;;;;36.88;8.82;;;;;;;;;;5094830;28;20060;-66
2022/02/22 12:45:17;;;;;;;34.22;9.30;;;;;;;;;;5095672;28;20044;-67
2022/02/22 12:47:43;;;;;;;41.88;8.32;;;;;;;;;;5120787;27;20052;-68
2022/02/22 12:50:11;;;;;;;37.92;8.32;;;;;;;;;;5077180;28;20103;-67
2022/02/22 12:52:38;;;;;;;30.98;10.15;;;;;;;;;;5085437;28;20060;-69
2022/02/22 12:55:06;;;;;;;40.08;10.63;;;;;;;;;;5068373;28;20049;-69
2022/02/22 12:57:32;;;;;;;34.30;10.43;;;;;;;;;;5084436;28;20067;-71
2022/02/22 13:00:02;;;;;;;43.13;10.73;;;;;;;;;;5082627;28;20079;-70
2022/02/22 13:02:28;;;;;;;32.20;8.93;;;;;;;;;;5082433;28;20508;-71
2022/02/22 13:04:54;;;;;;;34.25;10.90;;;;;;;;;;5073355;28;20076;-68
2022/02/22 13:07:20;;;;;;;49.63;12.05;;;;;;;;;;5077348;28;20472;-69
2022/02/22 13:09:50;;;;;;;51.20;11.02;;;;;;;;;;5080363;28;20040;-70
2022/02/22 13:12:20;;;;;;;42.90;10.45;;;;;;;;;;5081216;28;20119;-68
2022/02/22 13:14:47;;;;;;;39.92;11.77;;;;;;;;;;5084181;28;20052;-65
2022/02/22 13:17:15;;;;;;;42.83;13.68;;;;;;;;;;5081539;28;20048;-72
2022/02/22 13:19:43;;;;;;;39.17;10.55;;;;;;;;;;5075648;28;20044;-71
2022/02/22 13:22:10;;;;;;;30.98;10.65;;;;;;;;;;5080899;28;20043;-71
2022/02/22 13:24:40;;;;;;;38.63;12.13;;;;;;;;;;5086001;28;20055;-71
2022/02/22 13:27:07;;;;;;;44.75;13.15;;;;;;;;;;5080626;28;20070;-68
2022/02/22 13:29:33;;;;;;;35.30;12.23;;;;;;;;;;5084625;28;20075;-68
2022/02/22 13:32:08;;;;;;;45.03;13.88;;;;;;;;;;5078071;28;20153;-68
2022/02/22 13:34:43;;;;;;;47.17;13.27;;;;;;;;;;5080119;28;20428;-75
2022/02/22 13:37:09;;;;;;;34.58;12.73;;;;;;;;;;5083448;28;20057;-71
2022/02/22 13:39:35;;;;;;;34.55;11.10;;;;;;;;;;5079244;28;20157;-74
2022/02/22 13:42:02;;;;;;;35.90;11.60;;;;;;;;;;5087238;28;20056;-75
2022/02/22 13:44:33;;;;;;;41.75;12.98;;;;;;;;;;5082340;28;20112;-77
2022/02/22 13:46:59;;;;;;;39.38;13.20;;;;;;;;;;5084366;28;20043;-76
2022/02/22 13:49:26;;;;;;;42.05;13.77;;;;;;;;;;5090377;28;20079;-78
2022/02/22 13:51:53;;;;;;;40.25;12.93;;;;;;;;;;5074580;28;20087;-74
2022/02/22 13:54:22;;;;;;;48.88;13.30;;;;;;;;;;5078693;28;20470;-76
2022/02/22 13:57:01;;;;;;;38.20;13.50;;;;;;;;;;5078575;28;20055;-72
2022/02/22 13:59:35;;;;;;;41.92;13.07;;;;;;;;;;5073562;28;20041;-70
2022/02/22 14:02:02;;;;;;;36.60;10.95;;;;;;;;;;5084343;28;20092;-67
2022/02/22 14:04:29;;;;;;;41.33;13.02;;;;;;;;;;5080555;28;20032;-68
2022/02/22 14:06:58;;;;;;;39.10;12.32;;;;;;;;;;5098014;28;20044;-72
2022/02/22 14:09:24;;;;;;;32.53;12.88;;;;;;;;;;5075690;28;20045;-75
2022/02/22 14:11:54;;;;;;;37.55;12.88;;;;;;;;;;5078852;28;20127;-72
2022/02/22 14:14:20;;;;;;;31.55;10.82;;;;;;;;;;5084576;28;20044;-74
2022/02/22 14:16:46;;;;;;;29.92;10.77;;;;;;;;;;5087190;28;20487;-73
2022/02/22 14:19:13;;;;;;;48.25;12.23;;;;;;;;;;5082487;28;20074;-73
2022/02/22 14:21:40;;;;;;;44.63;10.15;;;;;;;;;;5081682;28;20051;-74
2022/02/22 14:24:07;;;;;;;35.28;11.68;;;;;;;;;;5080218;28;20055;-75
2022/02/22 14:26:33;;;;;;;36.80;10.30;;;;;;;;;;5077672;28;20108;-73
2022/02/22 14:29:00;;;;;;;30.42;10.77;;;;;;;;;;5084882;28;20152;-71